sensor_id;sensor_type;location;lat;lon;timestamp;P1;durP1;ratioP1;P2;durP2;ratioP2
19436;SDS011;9854;50.968;4.168;2023-01-10T00:00:09;16.23;;;4.17;;
19436;SDS011;9854;50.968;4.168;2023-01-10T00:02:35;17.33;;;4.37;;
19436;SDS011;9854;50.968;4.168;2023-01-10T00:05:01;21.77;;;4.70;;
19436;SDS011;9854;50.968;4.168;2023-01-10T00:07:27;15.13;;;4.40;;
19436;SDS011;9854;50.968;4.168;2023-01-10T00:09:53;14.67;;;3.63;;
19436;SDS011;9854;50.968;4.168;2023-01-10T00:12:18;16.47;;;4.13;;
19436;SDS011;9854;50.968;4.168;2023-01-10T00:15:02;18.83;;;4.07;;
19436;SDS011;9854;50.968;4.168;2023-01-10T00:17:29;16.77;;;4.40;;
19436;SDS011;9854;50.968;4.168;2023-01-10T00:19:54;18.70;;;4.83;;
19436;SDS011;9854;50.968;4.168;2023-01-10T00:22:20;21.37;;;4.20;;
19436;SDS011;9854;50.968;4.168;2023-01-10T00:24:49;15.33;;;4.00;;
19436;SDS011;9854;50.968;4.168;2023-01-10T00:27:15;16.57;;;4.27;;
19436;SDS011;9854;50.968;4.168;2023-01-10T00:29:47;16.90;;;4.60;;
19436;SDS011;9854;50.968;4.168;2023-01-10T00:32:16;20.37;;;4.43;;
19436;SDS011;9854;50.968;4.168;2023-01-10T00:34:42;15.37;;;4.30;;
19436;SDS011;9854;50.968;4.168;2023-01-10T00:37:07;17.87;;;4.20;;
19436;SDS011;9854;50.968;4.168;2023-01-10T00:39:33;21.13;;;4.97;;
19436;SDS011;9854;50.968;4.168;2023-01-10T00:41:59;20.30;;;4.63;;
19436;SDS011;9854;50.968;4.168;2023-01-10T00:44:43;12.70;;;4.17;;
19436;SDS011;9854;50.968;4.168;2023-01-10T00:47:10;22.90;;;4.43;;
19436;SDS011;9854;50.968;4.168;2023-01-10T00:49:37;14.67;;;4.17;;
19436;SDS011;9854;50.968;4.168;2023-01-10T00:52:03;22.33;;;4.80;;
19436;SDS011;9854;50.968;4.168;2023-01-10T00:54:29;22.30;;;4.97;;
19436;SDS011;9854;50.968;4.168;2023-01-10T00:56:55;21.37;;;4.50;;
19436;SDS011;9854;50.968;4.168;2023-01-10T00:59:21;26.57;;;5.40;;
19436;SDS011;9854;50.968;4.168;2023-01-10T01:01:47;18.13;;;4.10;;
19436;SDS011;9854;50.968;4.168;2023-01-10T01:04:14;20.97;;;4.90;;
19436;SDS011;9854;50.968;4.168;2023-01-10T01:06:41;24.73;;;4.93;;
19436;SDS011;9854;50.968;4.168;2023-01-10T01:09:11;19.23;;;4.97;;
19436;SDS011;9854;50.968;4.168;2023-01-10T01:11:38;19.47;;;4.00;;
19436;SDS011;9854;50.968;4.168;2023-01-10T01:14:04;19.60;;;4.57;;
19436;SDS011;9854;50.968;4.168;2023-01-10T01:16:30;25.97;;;4.93;;
19436;SDS011;9854;50.968;4.168;2023-01-10T01:18:55;20.30;;;4.80;;
19436;SDS011;9854;50.968;4.168;2023-01-10T01:21:21;27.43;;;5.40;;
19436;SDS011;9854;50.968;4.168;2023-01-10T01:23:52;21.53;;;4.63;;
19436;SDS011;9854;50.968;4.168;2023-01-10T01:26:24;23.20;;;4.60;;
19436;SDS011;9854;50.968;4.168;2023-01-10T01:28:50;19.20;;;4.90;;
19436;SDS011;9854;50.968;4.168;2023-01-10T01:31:16;28.77;;;5.20;;
19436;SDS011;9854;50.968;4.168;2023-01-10T01:33:41;22.87;;;4.97;;
19436;SDS011;9854;50.968;4.168;2023-01-10T01:36:08;21.47;;;4.60;;
19436;SDS011;9854;50.968;4.168;2023-01-10T01:38:38;23.43;;;5.00;;
19436;SDS011;9854;50.968;4.168;2023-01-10T01:41:05;22.13;;;4.67;;
19436;SDS011;9854;50.968;4.168;2023-01-10T01:44:00;22.17;;;4.87;;
19436;SDS011;9854;50.968;4.168;2023-01-10T01:46:31;28.00;;;5.60;;
19436;SDS011;9854;50.968;4.168;2023-01-10T01:49:00;28.60;;;5.00;;
19436;SDS011;9854;50.968;4.168;2023-01-10T01:51:30;23.70;;;4.70;;
19436;SDS011;9854;50.968;4.168;2023-01-10T01:54:04;27.40;;;5.73;;
19436;SDS011;9854;50.968;4.168;2023-01-10T01:56:34;28.20;;;4.93;;
19436;SDS011;9854;50.968;4.168;2023-01-10T01:59:07;29.47;;;5.70;;
19436;SDS011;9854;50.968;4.168;2023-01-10T02:01:45;27.60;;;5.47;;
19436;SDS011;9854;50.968;4.168;2023-01-10T02:04:18;31.90;;;6.10;;
19436;SDS011;9854;50.968;4.168;2023-01-10T02:06:47;22.63;;;5.03;;
19436;SDS011;9854;50.968;4.168;2023-01-10T02:12:22;34.33;;;5.47;;
19436;SDS011;9854;50.968;4.168;2023-01-10T02:14:49;29.57;;;5.53;;
19436;SDS011;9854;50.968;4.168;2023-01-10T02:17:16;24.67;;;5.27;;
19436;SDS011;9854;50.968;4.168;2023-01-10T02:41:27;31.10;;;6.33;;
19436;SDS011;9854;50.968;4.168;2023-01-10T02:44:07;28.63;;;6.07;;
19436;SDS011;9854;50.968;4.168;2023-01-10T02:46:43;28.57;;;5.90;;
19436;SDS011;9854;50.968;4.168;2023-01-10T02:49:10;30.67;;;6.87;;
19436;SDS011;9854;50.968;4.168;2023-01-10T02:51:35;22.63;;;6.13;;
19436;SDS011;9854;50.968;4.168;2023-01-10T02:54:12;28.47;;;6.60;;
19436;SDS011;9854;50.968;4.168;2023-01-10T02:59:41;29.30;;;6.90;;
19436;SDS011;9854;50.968;4.168;2023-01-10T03:07:56;28.30;;;6.00;;
19436;SDS011;9854;50.968;4.168;2023-01-10T03:10:33;25.87;;;6.67;;
19436;SDS011;9854;50.968;4.168;2023-01-10T03:13:15;29.10;;;6.37;;
19436;SDS011;9854;50.968;4.168;2023-01-10T03:15:49;30.83;;;6.40;;
19436;SDS011;9854;50.968;4.168;2023-01-10T03:18:27;24.80;;;5.80;;
19436;SDS011;9854;50.968;4.168;2023-01-10T03:21:02;37.33;;;6.77;;
19436;SDS011;9854;50.968;4.168;2023-01-10T03:23:30;33.37;;;6.57;;
19436;SDS011;9854;50.968;4.168;2023-01-10T03:25:58;37.60;;;6.23;;
19436;SDS011;9854;50.968;4.168;2023-01-10T03:31:07;35.00;;;6.40;;
19436;SDS011;9854;50.968;4.168;2023-01-10T03:33:38;32.53;;;6.60;;
19436;SDS011;9854;50.968;4.168;2023-01-10T03:42:30;35.10;;;6.63;;
19436;SDS011;9854;50.968;4.168;2023-01-10T03:45:20;29.10;;;5.73;;
19436;SDS011;9854;50.968;4.168;2023-01-10T03:47:52;28.67;;;5.50;;
19436;SDS011;9854;50.968;4.168;2023-01-10T03:50:21;30.27;;;6.30;;
19436;SDS011;9854;50.968;4.168;2023-01-10T03:52:49;25.17;;;6.50;;
19436;SDS011;9854;50.968;4.168;2023-01-10T03:55:19;42.13;;;7.37;;
19436;SDS011;9854;50.968;4.168;2023-01-10T03:57:47;31.07;;;6.40;;
19436;SDS011;9854;50.968;4.168;2023-01-10T04:00:13;29.03;;;6.47;;
19436;SDS011;9854;50.968;4.168;2023-01-10T04:02:40;26.63;;;6.57;;
19436;SDS011;9854;50.968;4.168;2023-01-10T04:05:06;31.00;;;6.30;;
19436;SDS011;9854;50.968;4.168;2023-01-10T04:07:32;33.90;;;6.83;;
19436;SDS011;9854;50.968;4.168;2023-01-10T04:09:58;27.37;;;6.07;;
19436;SDS011;9854;50.968;4.168;2023-01-10T04:12:24;33.37;;;6.30;;
19436;SDS011;9854;50.968;4.168;2023-01-10T04:14:50;29.20;;;6.23;;
19436;SDS011;9854;50.968;4.168;2023-01-10T04:17:16;31.37;;;6.47;;
19436;SDS011;9854;50.968;4.168;2023-01-10T04:19:42;32.43;;;6.10;;
19436;SDS011;9854;50.968;4.168;2023-01-10T04:22:08;30.57;;;6.20;;
19436;SDS011;9854;50.968;4.168;2023-01-10T04:24:35;28.23;;;5.87;;
19436;SDS011;9854;50.968;4.168;2023-01-10T04:27:00;35.27;;;6.27;;
19436;SDS011;9854;50.968;4.168;2023-01-10T04:29:26;34.57;;;6.33;;
19436;SDS011;9854;50.968;4.168;2023-01-10T04:31:52;36.43;;;6.27;;
19436;SDS011;9854;50.968;4.168;2023-01-10T04:34:18;34.87;;;6.83;;
19436;SDS011;9854;50.968;4.168;2023-01-10T04:36:47;43.70;;;8.27;;
19436;SDS011;9854;50.968;4.168;2023-01-10T04:39:13;34.97;;;6.93;;
19436;SDS011;9854;50.968;4.168;2023-01-10T04:41:39;42.87;;;7.63;;
19436;SDS011;9854;50.968;4.168;2023-01-10T04:44:05;42.57;;;6.97;;
19436;SDS011;9854;50.968;4.168;2023-01-10T04:46:31;40.43;;;7.43;;
19436;SDS011;9854;50.968;4.168;2023-01-10T04:48:57;45.13;;;7.73;;
19436;SDS011;9854;50.968;4.168;2023-01-10T04:51:26;36.53;;;6.80;;
19436;SDS011;9854;50.968;4.168;2023-01-10T04:53:53;37.23;;;6.37;;
19436;SDS011;9854;50.968;4.168;2023-01-10T04:56:19;45.97;;;7.67;;
19436;SDS011;9854;50.968;4.168;2023-01-10T04:58:46;37.53;;;6.93;;
19436;SDS011;9854;50.968;4.168;2023-01-10T05:01:14;41.43;;;8.13;;
19436;SDS011;9854;50.968;4.168;2023-01-10T05:03:42;39.10;;;7.97;;
19436;SDS011;9854;50.968;4.168;2023-01-10T05:06:08;34.40;;;7.83;;
19436;SDS011;9854;50.968;4.168;2023-01-10T05:08:34;46.37;;;7.57;;
19436;SDS011;9854;50.968;4.168;2023-01-10T05:11:00;42.10;;;7.80;;
19436;SDS011;9854;50.968;4.168;2023-01-10T05:13:26;38.53;;;7.70;;
19436;SDS011;9854;50.968;4.168;2023-01-10T05:15:55;38.93;;;7.10;;
19436;SDS011;9854;50.968;4.168;2023-01-10T05:18:22;45.13;;;7.57;;
19436;SDS011;9854;50.968;4.168;2023-01-10T05:20:48;37.60;;;6.93;;
19436;SDS011;9854;50.968;4.168;2023-01-10T05:23:14;32.73;;;6.53;;
19436;SDS011;9854;50.968;4.168;2023-01-10T05:25:40;41.70;;;7.17;;
19436;SDS011;9854;50.968;4.168;2023-01-10T05:28:05;40.87;;;7.03;;
19436;SDS011;9854;50.968;4.168;2023-01-10T05:30:31;39.03;;;6.80;;
19436;SDS011;9854;50.968;4.168;2023-01-10T05:32:57;44.13;;;6.80;;
19436;SDS011;9854;50.968;4.168;2023-01-10T05:35:22;43.07;;;6.33;;
19436;SDS011;9854;50.968;4.168;2023-01-10T05:37:48;36.17;;;6.93;;
19436;SDS011;9854;50.968;4.168;2023-01-10T05:40:13;42.58;;;7.00;;
19436;SDS011;9854;50.968;4.168;2023-01-10T05:42:40;47.07;;;7.20;;
19436;SDS011;9854;50.968;4.168;2023-01-10T05:45:05;32.23;;;5.93;;
19436;SDS011;9854;50.968;4.168;2023-01-10T05:47:32;35.70;;;6.77;;
19436;SDS011;9854;50.968;4.168;2023-01-10T05:49:57;32.83;;;6.00;;
19436;SDS011;9854;50.968;4.168;2023-01-10T05:52:23;38.80;;;6.23;;
19436;SDS011;9854;50.968;4.168;2023-01-10T05:54:49;30.63;;;6.33;;
19436;SDS011;9854;50.968;4.168;2023-01-10T05:57:14;33.00;;;6.72;;
19436;SDS011;9854;50.968;4.168;2023-01-10T05:59:40;34.33;;;7.47;;
19436;SDS011;9854;50.968;4.168;2023-01-10T06:02:06;37.33;;;6.07;;
19436;SDS011;9854;50.968;4.168;2023-01-10T06:04:31;33.23;;;5.80;;
19436;SDS011;9854;50.968;4.168;2023-01-10T06:06:57;34.80;;;5.90;;
19436;SDS011;9854;50.968;4.168;2023-01-10T06:09:23;28.13;;;5.67;;
19436;SDS011;9854;50.968;4.168;2023-01-10T06:11:48;29.30;;;6.93;;
19436;SDS011;9854;50.968;4.168;2023-01-10T06:14:14;36.03;;;7.23;;
19436;SDS011;9854;50.968;4.168;2023-01-10T06:16:43;35.47;;;7.33;;
19436;SDS011;9854;50.968;4.168;2023-01-10T06:19:12;35.97;;;7.13;;
19436;SDS011;9854;50.968;4.168;2023-01-10T06:21:38;38.23;;;7.37;;
19436;SDS011;9854;50.968;4.168;2023-01-10T06:24:04;35.50;;;6.63;;
19436;SDS011;9854;50.968;4.168;2023-01-10T06:26:30;40.60;;;7.13;;
19436;SDS011;9854;50.968;4.168;2023-01-10T06:28:56;38.23;;;6.47;;
19436;SDS011;9854;50.968;4.168;2023-01-10T06:31:23;37.17;;;6.57;;
19436;SDS011;9854;50.968;4.168;2023-01-10T06:33:49;29.03;;;5.83;;
19436;SDS011;9854;50.968;4.168;2023-01-10T06:36:15;34.60;;;6.30;;
19436;SDS011;9854;50.968;4.168;2023-01-10T06:38:41;28.40;;;5.73;;
19436;SDS011;9854;50.968;4.168;2023-01-10T06:41:07;35.13;;;6.07;;
19436;SDS011;9854;50.968;4.168;2023-01-10T06:43:42;35.00;;;6.27;;
19436;SDS011;9854;50.968;4.168;2023-01-10T06:46:12;30.07;;;5.90;;
19436;SDS011;9854;50.968;4.168;2023-01-10T06:48:40;32.13;;;6.00;;
19436;SDS011;9854;50.968;4.168;2023-01-10T06:51:08;38.13;;;6.50;;
19436;SDS011;9854;50.968;4.168;2023-01-10T06:53:34;22.50;;;5.50;;
19436;SDS011;9854;50.968;4.168;2023-01-10T06:56:00;32.60;;;6.00;;
19436;SDS011;9854;50.968;4.168;2023-01-10T06:58:27;33.10;;;5.93;;
19436;SDS011;9854;50.968;4.168;2023-01-10T07:00:53;31.60;;;6.50;;
19436;SDS011;9854;50.968;4.168;2023-01-10T07:03:19;25.63;;;5.70;;
19436;SDS011;9854;50.968;4.168;2023-01-10T07:05:45;32.70;;;6.17;;
19436;SDS011;9854;50.968;4.168;2023-01-10T07:08:11;39.50;;;6.50;;
19436;SDS011;9854;50.968;4.168;2023-01-10T07:10:38;31.57;;;5.77;;
19436;SDS011;9854;50.968;4.168;2023-01-10T07:13:05;38.67;;;6.37;;
19436;SDS011;9854;50.968;4.168;2023-01-10T07:15:31;28.07;;;6.57;;
19436;SDS011;9854;50.968;4.168;2023-01-10T07:17:57;34.13;;;7.07;;
19436;SDS011;9854;50.968;4.168;2023-01-10T07:20:23;36.57;;;7.23;;
19436;SDS011;9854;50.968;4.168;2023-01-10T07:22:56;30.60;;;6.13;;
19436;SDS011;9854;50.968;4.168;2023-01-10T07:25:23;26.17;;;6.13;;
19436;SDS011;9854;50.968;4.168;2023-01-10T07:27:50;29.57;;;6.03;;
19436;SDS011;9854;50.968;4.168;2023-01-10T07:30:16;33.97;;;6.20;;
19436;SDS011;9854;50.968;4.168;2023-01-10T07:32:41;31.10;;;6.37;;
19436;SDS011;9854;50.968;4.168;2023-01-10T07:35:07;36.37;;;6.37;;
19436;SDS011;9854;50.968;4.168;2023-01-10T07:37:33;27.97;;;6.33;;
19436;SDS011;9854;50.968;4.168;2023-01-10T07:39:59;26.57;;;5.87;;
19436;SDS011;9854;50.968;4.168;2023-01-10T07:42:24;21.67;;;5.87;;
19436;SDS011;9854;50.968;4.168;2023-01-10T07:44:50;34.90;;;6.20;;
19436;SDS011;9854;50.968;4.168;2023-01-10T07:47:16;25.07;;;5.50;;
19436;SDS011;9854;50.968;4.168;2023-01-10T07:49:42;21.93;;;4.90;;
19436;SDS011;9854;50.968;4.168;2023-01-10T07:52:07;33.93;;;5.93;;
19436;SDS011;9854;50.968;4.168;2023-01-10T07:54:33;20.60;;;5.70;;
19436;SDS011;9854;50.968;4.168;2023-01-10T07:57:00;26.37;;;5.23;;
19436;SDS011;9854;50.968;4.168;2023-01-10T07:59:26;25.30;;;5.57;;
19436;SDS011;9854;50.968;4.168;2023-01-10T08:01:51;27.17;;;6.07;;
19436;SDS011;9854;50.968;4.168;2023-01-10T08:04:18;31.53;;;6.20;;
19436;SDS011;9854;50.968;4.168;2023-01-10T08:06:44;28.43;;;6.10;;
19436;SDS011;9854;50.968;4.168;2023-01-10T08:09:10;30.57;;;5.90;;
19436;SDS011;9854;50.968;4.168;2023-01-10T08:11:36;37.07;;;5.77;;
19436;SDS011;9854;50.968;4.168;2023-01-10T08:14:01;36.27;;;6.57;;
19436;SDS011;9854;50.968;4.168;2023-01-10T08:16:27;19.93;;;5.70;;
19436;SDS011;9854;50.968;4.168;2023-01-10T08:18:53;33.97;;;6.83;;
19436;SDS011;9854;50.968;4.168;2023-01-10T08:21:18;32.30;;;6.00;;
19436;SDS011;9854;50.968;4.168;2023-01-10T08:23:44;30.70;;;6.10;;
19436;SDS011;9854;50.968;4.168;2023-01-10T08:26:10;31.43;;;6.03;;
19436;SDS011;9854;50.968;4.168;2023-01-10T08:28:35;30.17;;;5.67;;
19436;SDS011;9854;50.968;4.168;2023-01-10T08:31:05;43.33;;;6.77;;
19436;SDS011;9854;50.968;4.168;2023-01-10T08:33:33;28.57;;;6.07;;
19436;SDS011;9854;50.968;4.168;2023-01-10T08:36:00;26.90;;;5.30;;
19436;SDS011;9854;50.968;4.168;2023-01-10T08:38:26;30.63;;;6.77;;
19436;SDS011;9854;50.968;4.168;2023-01-10T08:40:54;25.47;;;6.30;;
19436;SDS011;9854;50.968;4.168;2023-01-10T08:43:22;37.45;;;6.90;;
19436;SDS011;9854;50.968;4.168;2023-01-10T08:45:47;25.67;;;6.47;;
19436;SDS011;9854;50.968;4.168;2023-01-10T08:48:13;28.60;;;6.13;;
19436;SDS011;9854;50.968;4.168;2023-01-10T08:50:39;43.47;;;7.03;;
19436;SDS011;9854;50.968;4.168;2023-01-10T08:53:05;31.87;;;6.13;;
19436;SDS011;9854;50.968;4.168;2023-01-10T08:55:31;26.70;;;5.17;;
19436;SDS011;9854;50.968;4.168;2023-01-10T08:57:59;29.98;;;6.95;;
19436;SDS011;9854;50.968;4.168;2023-01-10T09:00:25;24.73;;;5.80;;
19436;SDS011;9854;50.968;4.168;2023-01-10T09:02:52;24.27;;;6.17;;
19436;SDS011;9854;50.968;4.168;2023-01-10T09:05:17;34.67;;;7.03;;
19436;SDS011;9854;50.968;4.168;2023-01-10T09:07:43;23.17;;;5.70;;
19436;SDS011;9854;50.968;4.168;2023-01-10T09:10:10;27.27;;;5.97;;
19436;SDS011;9854;50.968;4.168;2023-01-10T09:12:36;24.43;;;5.90;;
19436;SDS011;9854;50.968;4.168;2023-01-10T09:15:27;30.77;;;6.30;;
19436;SDS011;9854;50.968;4.168;2023-01-10T09:17:54;32.87;;;6.53;;
19436;SDS011;9854;50.968;4.168;2023-01-10T09:20:22;31.30;;;7.20;;
19436;SDS011;9854;50.968;4.168;2023-01-10T09:22:49;31.83;;;6.93;;
19436;SDS011;9854;50.968;4.168;2023-01-10T09:25:15;32.50;;;6.77;;
19436;SDS011;9854;50.968;4.168;2023-01-10T09:27:40;27.03;;;6.60;;
19436;SDS011;9854;50.968;4.168;2023-01-10T09:30:06;30.70;;;6.43;;
19436;SDS011;9854;50.968;4.168;2023-01-10T09:32:32;27.63;;;7.00;;
19436;SDS011;9854;50.968;4.168;2023-01-10T09:34:58;26.80;;;5.63;;
19436;SDS011;9854;50.968;4.168;2023-01-10T09:37:24;27.17;;;5.87;;
19436;SDS011;9854;50.968;4.168;2023-01-10T09:39:50;30.47;;;6.17;;
19436;SDS011;9854;50.968;4.168;2023-01-10T09:42:19;40.93;;;7.47;;
19436;SDS011;9854;50.968;4.168;2023-01-10T09:52:48;31.57;;;6.17;;
19436;SDS011;9854;50.968;4.168;2023-01-10T09:55:19;31.03;;;6.60;;
19436;SDS011;9854;50.968;4.168;2023-01-10T09:57:51;24.07;;;5.60;;
19436;SDS011;9854;50.968;4.168;2023-01-10T10:00:21;25.83;;;5.53;;
19436;SDS011;9854;50.968;4.168;2023-01-10T10:02:58;29.00;;;6.03;;
19436;SDS011;9854;50.968;4.168;2023-01-10T10:05:25;35.70;;;6.57;;
19436;SDS011;9854;50.968;4.168;2023-01-10T10:07:54;28.50;;;6.30;;
19436;SDS011;9854;50.968;4.168;2023-01-10T10:10:23;34.13;;;6.47;;
19436;SDS011;9854;50.968;4.168;2023-01-10T10:17:49;33.27;;;6.77;;
19436;SDS011;9854;50.968;4.168;2023-01-10T10:20:57;28.70;;;5.67;;
19436;SDS011;9854;50.968;4.168;2023-01-10T10:26:56;28.70;;;5.80;;
19436;SDS011;9854;50.968;4.168;2023-01-10T10:29:26;36.40;;;6.47;;
19436;SDS011;9854;50.968;4.168;2023-01-10T10:32:03;28.03;;;6.30;;
19436;SDS011;9854;50.968;4.168;2023-01-10T10:34:41;28.03;;;6.53;;
19436;SDS011;9854;50.968;4.168;2023-01-10T10:37:18;32.20;;;6.37;;
19436;SDS011;9854;50.968;4.168;2023-01-10T10:39:57;18.47;;;5.00;;
19436;SDS011;9854;50.968;4.168;2023-01-10T10:42:28;28.90;;;6.67;;
19436;SDS011;9854;50.968;4.168;2023-01-10T10:45:00;32.30;;;6.33;;
19436;SDS011;9854;50.968;4.168;2023-01-10T10:47:32;27.80;;;6.27;;
19436;SDS011;9854;50.968;4.168;2023-01-10T10:52:52;26.17;;;5.73;;
19436;SDS011;9854;50.968;4.168;2023-01-10T10:55:20;28.67;;;6.43;;
19436;SDS011;9854;50.968;4.168;2023-01-10T10:57:53;32.70;;;7.07;;
19436;SDS011;9854;50.968;4.168;2023-01-10T11:00:19;27.83;;;5.80;;
19436;SDS011;9854;50.968;4.168;2023-01-10T11:02:50;31.57;;;6.47;;
19436;SDS011;9854;50.968;4.168;2023-01-10T11:05:31;27.87;;;5.83;;
19436;SDS011;9854;50.968;4.168;2023-01-10T11:08:08;24.20;;;6.17;;
19436;SDS011;9854;50.968;4.168;2023-01-10T11:10:40;28.43;;;6.53;;
19436;SDS011;9854;50.968;4.168;2023-01-10T11:15:46;25.07;;;5.57;;
19436;SDS011;9854;50.968;4.168;2023-01-10T11:18:18;26.03;;;5.50;;
19436;SDS011;9854;50.968;4.168;2023-01-10T11:20:50;32.27;;;6.43;;
19436;SDS011;9854;50.968;4.168;2023-01-10T11:26:26;37.00;;;6.13;;
19436;SDS011;9854;50.968;4.168;2023-01-10T11:31:31;29.50;;;6.97;;
19436;SDS011;9854;50.968;4.168;2023-01-10T11:33:58;24.37;;;6.53;;
19436;SDS011;9854;50.968;4.168;2023-01-10T11:36:31;26.07;;;5.83;;
19436;SDS011;9854;50.968;4.168;2023-01-10T11:39:18;30.80;;;6.37;;
19436;SDS011;9854;50.968;4.168;2023-01-10T11:41:43;23.20;;;5.93;;
19436;SDS011;9854;50.968;4.168;2023-01-10T11:44:16;33.93;;;6.60;;
19436;SDS011;9854;50.968;4.168;2023-01-10T11:46:45;27.10;;;6.53;;
19436;SDS011;9854;50.968;4.168;2023-01-10T11:49:14;28.07;;;5.70;;
19436;SDS011;9854;50.968;4.168;2023-01-10T11:51:46;25.10;;;6.40;;
19436;SDS011;9854;50.968;4.168;2023-01-10T11:59:28;26.57;;;6.40;;
19436;SDS011;9854;50.968;4.168;2023-01-10T12:02:01;23.77;;;5.57;;
19436;SDS011;9854;50.968;4.168;2023-01-10T12:04:44;27.83;;;6.33;;
19436;SDS011;9854;50.968;4.168;2023-01-10T12:07:13;23.90;;;6.07;;
19436;SDS011;9854;50.968;4.168;2023-01-10T12:09:43;25.80;;;5.80;;
19436;SDS011;9854;50.968;4.168;2023-01-10T12:12:22;34.90;;;5.73;;
19436;SDS011;9854;50.968;4.168;2023-01-10T12:14:53;22.10;;;5.43;;
19436;SDS011;9854;50.968;4.168;2023-01-10T12:17:29;26.90;;;6.00;;
19436;SDS011;9854;50.968;4.168;2023-01-10T12:19:58;28.20;;;6.43;;
19436;SDS011;9854;50.968;4.168;2023-01-10T12:22:36;26.83;;;6.43;;
19436;SDS011;9854;50.968;4.168;2023-01-10T12:25:09;24.53;;;5.87;;
19436;SDS011;9854;50.968;4.168;2023-01-10T12:27:45;33.20;;;6.60;;
19436;SDS011;9854;50.968;4.168;2023-01-10T12:32:52;27.07;;;6.47;;
19436;SDS011;9854;50.968;4.168;2023-01-10T12:35:24;23.23;;;5.07;;
19436;SDS011;9854;50.968;4.168;2023-01-10T12:41:29;32.27;;;6.30;;
19436;SDS011;9854;50.968;4.168;2023-01-10T12:44:44;25.43;;;5.87;;
19436;SDS011;9854;50.968;4.168;2023-01-10T12:49:51;19.63;;;5.47;;
19436;SDS011;9854;50.968;4.168;2023-01-10T12:52:28;25.97;;;5.70;;
19436;SDS011;9854;50.968;4.168;2023-01-10T12:55:01;26.03;;;5.87;;
19436;SDS011;9854;50.968;4.168;2023-01-10T12:57:37;28.73;;;7.10;;
19436;SDS011;9854;50.968;4.168;2023-01-10T13:00:04;25.87;;;6.03;;
19436;SDS011;9854;50.968;4.168;2023-01-10T13:02:38;22.63;;;5.97;;
19436;SDS011;9854;50.968;4.168;2023-01-10T13:05:13;32.53;;;6.03;;
19436;SDS011;9854;50.968;4.168;2023-01-10T13:07:44;27.40;;;6.23;;
19436;SDS011;9854;50.968;4.168;2023-01-10T13:10:16;34.67;;;6.50;;
19436;SDS011;9854;50.968;4.168;2023-01-10T13:13:09;26.77;;;6.60;;
19436;SDS011;9854;50.968;4.168;2023-01-10T13:16:04;28.67;;;6.70;;
19436;SDS011;9854;50.968;4.168;2023-01-10T13:21:36;21.20;;;5.50;;
19436;SDS011;9854;50.968;4.168;2023-01-10T13:26:51;19.83;;;6.70;;
19436;SDS011;9854;50.968;4.168;2023-01-10T13:32:18;28.60;;;5.93;;
19436;SDS011;9854;50.968;4.168;2023-01-10T13:34:44;15.63;;;5.43;;
19436;SDS011;9854;50.968;4.168;2023-01-10T13:37:13;19.97;;;5.43;;
19436;SDS011;9854;50.968;4.168;2023-01-10T13:39:50;24.07;;;6.27;;
19436;SDS011;9854;50.968;4.168;2023-01-10T13:42:29;24.37;;;4.57;;
19436;SDS011;9854;50.968;4.168;2023-01-10T13:45:18;23.17;;;5.43;;
19436;SDS011;9854;50.968;4.168;2023-01-10T13:55:19;22.13;;;4.20;;
19436;SDS011;9854;50.968;4.168;2023-01-10T13:57:58;21.73;;;5.20;;
19436;SDS011;9854;50.968;4.168;2023-01-10T14:08:54;18.60;;;4.63;;
19436;SDS011;9854;50.968;4.168;2023-01-10T14:11:25;13.30;;;4.60;;
19436;SDS011;9854;50.968;4.168;2023-01-10T14:13:59;15.53;;;4.70;;
19436;SDS011;9854;50.968;4.168;2023-01-10T14:16:30;13.57;;;4.27;;
19436;SDS011;9854;50.968;4.168;2023-01-10T14:18:57;14.60;;;4.47;;
19436;SDS011;9854;50.968;4.168;2023-01-10T14:21:24;18.60;;;4.80;;
19436;SDS011;9854;50.968;4.168;2023-01-10T14:23:52;12.37;;;4.10;;
19436;SDS011;9854;50.968;4.168;2023-01-10T14:26:33;13.37;;;4.10;;
19436;SDS011;9854;50.968;4.168;2023-01-10T14:29:06;13.97;;;3.67;;
19436;SDS011;9854;50.968;4.168;2023-01-10T14:31:36;12.87;;;3.50;;
19436;SDS011;9854;50.968;4.168;2023-01-10T14:34:08;11.03;;;3.60;;
19436;SDS011;9854;50.968;4.168;2023-01-10T14:36:44;9.10;;;3.20;;
19436;SDS011;9854;50.968;4.168;2023-01-10T14:39:31;10.00;;;3.37;;
19436;SDS011;9854;50.968;4.168;2023-01-10T14:41:59;12.60;;;2.60;;
19436;SDS011;9854;50.968;4.168;2023-01-10T14:47:35;9.67;;;2.80;;
19436;SDS011;9854;50.968;4.168;2023-01-10T14:50:02;13.73;;;3.33;;
19436;SDS011;9854;50.968;4.168;2023-01-10T14:52:31;4.03;;;2.10;;
19436;SDS011;9854;50.968;4.168;2023-01-10T14:57:27;5.70;;;2.97;;
19436;SDS011;9854;50.968;4.168;2023-01-10T15:00:00;5.90;;;2.30;;
19436;SDS011;9854;50.968;4.168;2023-01-10T15:02:46;5.43;;;2.53;;
19436;SDS011;9854;50.968;4.168;2023-01-10T15:05:26;3.37;;;2.30;;
19436;SDS011;9854;50.968;4.168;2023-01-10T15:07:54;3.67;;;1.80;;
19436;SDS011;9854;50.968;4.168;2023-01-10T15:10:34;4.03;;;2.05;;
19436;SDS011;9854;50.968;4.168;2023-01-10T15:13:05;3.03;;;2.00;;
19436;SDS011;9854;50.968;4.168;2023-01-10T15:15:36;3.47;;;2.20;;
19436;SDS011;9854;50.968;4.168;2023-01-10T15:18:12;4.73;;;2.10;;
19436;SDS011;9854;50.968;4.168;2023-01-10T15:21:04;4.03;;;2.03;;
19436;SDS011;9854;50.968;4.168;2023-01-10T15:23:34;2.93;;;1.90;;
19436;SDS011;9854;50.968;4.168;2023-01-10T15:26:02;3.00;;;2.27;;
19436;SDS011;9854;50.968;4.168;2023-01-10T15:28:31;4.10;;;1.70;;
19436;SDS011;9854;50.968;4.168;2023-01-10T15:30:59;2.07;;;1.77;;
19436;SDS011;9854;50.968;4.168;2023-01-10T15:33:28;4.13;;;2.20;;
19436;SDS011;9854;50.968;4.168;2023-01-10T15:36:01;1.97;;;1.60;;
19436;SDS011;9854;50.968;4.168;2023-01-10T15:38:29;2.23;;;1.60;;
19436;SDS011;9854;50.968;4.168;2023-01-10T15:41:02;2.17;;;1.90;;
19436;SDS011;9854;50.968;4.168;2023-01-10T15:43:30;3.77;;;1.53;;
19436;SDS011;9854;50.968;4.168;2023-01-10T15:46:01;1.77;;;1.53;;
19436;SDS011;9854;50.968;4.168;2023-01-10T15:48:32;1.50;;;1.40;;
19436;SDS011;9854;50.968;4.168;2023-01-10T15:51:03;1.90;;;1.70;;
19436;SDS011;9854;50.968;4.168;2023-01-10T15:54:02;1.83;;;1.53;;
19436;SDS011;9854;50.968;4.168;2023-01-10T15:56:46;1.50;;;1.40;;
19436;SDS011;9854;50.968;4.168;2023-01-10T16:04:48;1.67;;;1.57;;
19436;SDS011;9854;50.968;4.168;2023-01-10T16:07:20;2.00;;;1.90;;
19436;SDS011;9854;50.968;4.168;2023-01-10T16:12:25;1.90;;;1.80;;
19436;SDS011;9854;50.968;4.168;2023-01-10T16:15:30;1.93;;;1.83;;
19436;SDS011;9854;50.968;4.168;2023-01-10T16:17:59;1.80;;;1.70;;
19436;SDS011;9854;50.968;4.168;2023-01-10T16:20:29;3.23;;;2.87;;
19436;SDS011;9854;50.968;4.168;2023-01-10T16:22:59;1.70;;;1.60;;
19436;SDS011;9854;50.968;4.168;2023-01-10T16:25:33;2.70;;;2.50;;
19436;SDS011;9854;50.968;4.168;2023-01-10T16:28:02;2.37;;;2.17;;
19436;SDS011;9854;50.968;4.168;2023-01-10T16:30:31;3.20;;;2.90;;
19436;SDS011;9854;50.968;4.168;2023-01-10T16:33:02;3.10;;;2.90;;
19436;SDS011;9854;50.968;4.168;2023-01-10T16:35:35;2.23;;;2.13;;
19436;SDS011;9854;50.968;4.168;2023-01-10T16:38:01;3.00;;;2.70;;
19436;SDS011;9854;50.968;4.168;2023-01-10T16:40:28;3.17;;;2.90;;
19436;SDS011;9854;50.968;4.168;2023-01-10T16:42:58;3.60;;;3.30;;
19436;SDS011;9854;50.968;4.168;2023-01-10T16:48:23;2.90;;;2.70;;
19436;SDS011;9854;50.968;4.168;2023-01-10T16:50:51;2.80;;;2.60;;
19436;SDS011;9854;50.968;4.168;2023-01-10T16:53:18;2.87;;;2.67;;
19436;SDS011;9854;50.968;4.168;2023-01-10T16:55:51;2.73;;;2.53;;
19436;SDS011;9854;50.968;4.168;2023-01-10T16:58:18;2.73;;;2.50;;
19436;SDS011;9854;50.968;4.168;2023-01-10T17:00:46;3.03;;;2.60;;
19436;SDS011;9854;50.968;4.168;2023-01-10T17:03:14;2.60;;;2.40;;
19436;SDS011;9854;50.968;4.168;2023-01-10T17:05:44;4.17;;;2.50;;
19436;SDS011;9854;50.968;4.168;2023-01-10T17:08:28;4.40;;;2.20;;
19436;SDS011;9854;50.968;4.168;2023-01-10T17:10:55;2.83;;;2.53;;